Time;durP1;ratioP1;P1;durP2;ratioP2;P2;SDS_P1;SDS_P2;PMS_P1;PMS_P2;Temp;Humidity;BMP_temperature;BMP_pressure;BME280_temperature;BME280_humidity;BME280_pressure;Samples;Min_cycle;Max_cycle;Signal;HPM_P1;HPM_P2
2022/12/13 00:00:53;;;;;;;45.30;23.73;;;-2.20;99.90;;;;;;5040288;28;20037;-70
2022/12/13 00:03:19;;;;;;;42.88;22.77;;;-2.10;99.90;;;;;;5056807;28;20037;-70
2022/12/13 00:05:46;;;;;;;46.13;25.00;;;-2.20;99.90;;;;;;5056531;28;20036;-70
2022/12/13 00:08:12;;;;;;;45.50;24.63;;;-2.20;99.90;;;;;;5057645;28;20052;-70
2022/12/13 00:10:37;;;;;;;48.15;25.55;;;-2.30;99.90;;;;;;5057319;28;20029;-70
2022/12/13 00:13:04;;;;;;;47.35;24.45;;;-2.30;99.90;;;;;;5056583;28;20114;-70
2022/12/13 00:15:30;;;;;;;49.70;25.17;;;-2.30;99.90;;;;;;5039578;28;20033;-70
2022/12/13 00:17:56;;;;;;;43.72;23.98;;;-2.30;99.90;;;;;;5057401;28;20416;-71
2022/12/13 00:20:22;;;;;;;45.00;24.48;;;-2.30;99.90;;;;;;5057278;28;20041;-69
2022/12/13 00:22:51;;;;;;;46.42;24.80;;;-2.30;99.90;;;;;;5057235;28;20297;-69
2022/12/13 00:25:19;;;;;;;47.50;23.77;;;-2.30;99.90;;;;;;5057289;28;20043;-70
2022/12/13 00:27:45;;;;;;;46.65;24.27;;;-2.40;99.90;;;;;;5057559;28;20293;-70
2022/12/13 00:30:11;;;;;;;44.00;23.25;;;-2.40;99.90;;;;;;5057762;28;20037;-70
2022/12/13 00:32:36;;;;;;;42.92;23.80;;;-2.40;99.90;;;;;;5056321;28;20178;-70
2022/12/13 00:35:02;;;;;;;47.15;23.80;;;-2.40;99.90;;;;;;5057020;28;20394;-70
2022/12/13 00:37:28;;;;;;;44.38;24.25;;;-2.50;99.90;;;;;;5056369;28;20044;-70
2022/12/13 00:39:54;;;;;;;47.92;23.70;;;-2.40;99.90;;;;;;5056871;28;20029;-70
2022/12/13 00:42:20;;;;;;;43.05;23.30;;;-2.40;99.90;;;;;;5056060;28;20044;-69
2022/12/13 00:44:46;;;;;;;42.38;22.60;;;-2.40;99.90;;;;;;5056258;28;20388;-69
2022/12/13 00:47:11;;;;;;;44.25;24.38;;;-2.40;99.90;;;;;;5056127;28;20052;-69
2022/12/13 00:49:37;;;;;;;43.28;22.35;;;-2.40;99.90;;;;;;5039475;28;20033;-70
2022/12/13 00:52:03;;;;;;;41.83;21.85;;;-2.50;99.90;;;;;;5039717;28;20443;-69
2022/12/13 00:54:29;;;;;;;41.50;22.70;;;-2.60;99.90;;;;;;5039495;28;20044;-69
2022/12/13 00:56:55;;;;;;;42.53;22.77;;;-2.50;99.90;;;;;;5056074;28;20043;-69
2022/12/13 00:59:21;;;;;;;41.17;22.13;;;-2.50;99.90;;;;;;5056721;28;20408;-70
2022/12/13 01:01:47;;;;;;;42.35;21.13;;;-2.50;99.90;;;;;;5039647;28;20033;-70
2022/12/13 01:04:12;;;;;;;38.83;21.45;;;-2.60;99.90;;;;;;5039469;28;20029;-70
2022/12/13 01:06:42;;;;;;;39.95;21.17;;;-2.60;99.90;;;;;;5056579;28;20059;-69
2022/12/13 01:09:28;;;;;;;41.58;22.33;;;-2.70;99.90;;;;;;5056728;28;20032;-69
2022/12/13 01:12:05;;;;;;;41.05;22.42;;;-2.60;99.90;;;;;;5055835;28;20032;-70
2022/12/13 01:14:35;;;;;;;40.13;21.05;;;-2.60;99.90;;;;;;5057209;28;20104;-70
2022/12/13 01:17:00;;;;;;;39.45;21.50;;;-2.50;99.90;;;;;;5056569;28;20338;-70
2022/12/13 01:19:27;;;;;;;44.50;21.98;;;-2.60;99.90;;;;;;5039319;28;20072;-70
2022/12/13 01:21:55;;;;;;;41.63;22.00;;;-2.50;99.90;;;;;;5039165;28;20336;-70
2022/12/13 01:24:23;;;;;;;37.75;21.02;;;-2.50;99.90;;;;;;5056483;28;20116;-70
2022/12/13 01:26:50;;;;;;;40.97;20.90;;;-2.50;99.90;;;;;;5057725;28;20021;-69
2022/12/13 01:29:16;;;;;;;43.38;22.02;;;-2.50;99.90;;;;;;5059712;28;20312;-69
2022/12/13 01:31:42;;;;;;;41.70;21.45;;;-2.60;99.90;;;;;;5059835;28;20083;-69
2022/12/13 01:34:10;;;;;;;40.22;21.45;;;-2.60;99.90;;;;;;5060461;28;20400;-69
2022/12/13 01:36:37;;;;;;;41.00;20.30;;;-2.70;99.90;;;;;;5059808;28;20385;-69
2022/12/13 01:39:03;;;;;;;38.75;20.02;;;-2.70;99.90;;;;;;5059557;28;20036;-69
2022/12/13 01:41:31;;;;;;;35.85;20.27;;;-2.70;99.90;;;;;;5043019;28;20033;-69
2022/12/13 01:44:02;;;;;;;35.45;19.77;;;-2.70;99.90;;;;;;5059391;28;20021;-69
2022/12/13 01:46:30;;;;;;;41.45;20.75;;;-2.70;99.90;;;;;;5060259;28;20025;-69
2022/12/13 01:49:08;;;;;;;36.15;20.10;;;-2.60;99.90;;;;;;5060058;28;20033;-68
2022/12/13 01:51:54;;;;;;;38.97;20.58;;;-2.60;99.90;;;;;;5059360;28;20037;-69
2022/12/13 01:54:25;;;;;;;37.97;19.58;;;-2.60;99.90;;;;;;5060106;28;20039;-70
2022/12/13 01:56:54;;;;;;;37.10;20.25;;;-2.60;99.90;;;;;;5060553;28;20106;-69
2022/12/13 01:59:21;;;;;;;35.83;19.50;;;-2.60;99.90;;;;;;5059033;28;20041;-69
2022/12/13 02:01:49;;;;;;;41.17;20.15;;;-2.60;99.90;;;;;;5059901;28;20035;-69
2022/12/13 02:04:22;;;;;;;36.35;19.65;;;-2.60;99.90;;;;;;5059852;28;20025;-69
2022/12/13 02:06:49;;;;;;;38.42;19.95;;;-2.60;99.90;;;;;;5059916;28;20041;-69
2022/12/13 02:09:15;;;;;;;37.38;20.13;;;-2.70;99.90;;;;;;5042464;28;20274;-70
2022/12/13 02:11:42;;;;;;;33.75;18.50;;;-2.60;99.90;;;;;;5059583;28;20036;-69
2022/12/13 02:14:08;;;;;;;37.10;19.15;;;-2.60;99.90;;;;;;5059622;28;20099;-69
2022/12/13 02:16:51;;;;;;;32.55;18.27;;;-2.70;99.90;;;;;;5042738;28;20355;-69
2022/12/13 02:19:36;;;;;;;42.58;20.25;;;-2.70;99.90;;;;;;5058740;28;20047;-70
2022/12/13 02:22:07;;;;;;;36.72;19.05;;;-2.70;99.90;;;;;;5058737;28;20095;-70
2022/12/13 02:24:58;;;;;;;34.00;18.90;;;-2.70;99.90;;;;;;5059815;28;20044;-69
2022/12/13 02:28:11;;;;;;;38.35;19.20;;;-2.70;99.90;;;;;;5058732;28;20033;-69
2022/12/13 02:30:43;;;;;;;37.42;19.02;;;-2.70;99.90;;;;;;5059951;28;20029;-69
2022/12/13 02:33:17;;;;;;;37.35;19.73;;;-2.70;99.90;;;;;;5058940;28;20028;-69
2022/12/13 02:35:52;;;;;;;32.78;17.85;;;-2.70;99.90;;;;;;5058507;28;20032;-69
2022/12/13 02:38:34;;;;;;;38.47;18.83;;;-2.80;99.90;;;;;;5058063;28;20463;-69
2022/12/13 02:41:44;;;;;;;41.08;19.05;;;-2.80;99.90;;;;;;5059641;28;20044;-69
2022/12/13 02:44:28;;;;;;;38.20;19.17;;;-2.80;99.90;;;;;;5052555;28;20041;-69
2022/12/13 02:47:11;;;;;;;35.03;18.48;;;-2.80;99.90;;;;;;5058356;28;20029;-69
2022/12/13 02:49:41;;;;;;;33.03;17.83;;;-2.80;99.90;;;;;;5059395;28;20419;-69
2022/12/13 02:52:09;;;;;;;34.22;18.25;;;-2.80;99.90;;;;;;5058263;28;20041;-69
2022/12/13 02:54:36;;;;;;;37.25;18.27;;;-2.90;99.90;;;;;;5059004;28;20438;-69
2022/12/13 02:57:02;;;;;;;34.40;18.00;;;-2.80;99.90;;;;;;5058880;28;20040;-69
2022/12/13 02:59:38;;;;;;;34.75;18.30;;;-2.80;99.90;;;;;;5058763;28;20029;-69
2022/12/13 03:02:16;;;;;;;33.17;18.90;;;-2.80;99.90;;;;;;5059070;28;20025;-69
2022/12/13 03:08:24;;;;;;;35.53;18.20;;;-2.90;99.90;;;;;;5058653;28;20040;-70
2022/12/13 03:11:04;;;;;;;34.22;19.02;;;-2.90;99.90;;;;;;5059015;28;20039;-70
2022/12/13 03:13:58;;;;;;;33.17;18.40;;;-2.90;99.90;;;;;;5058599;28;20029;-70
2022/12/13 03:16:29;;;;;;;37.70;19.20;;;-2.80;99.90;;;;;;5052961;28;20398;-70
2022/12/13 03:19:00;;;;;;;40.30;20.08;;;-2.70;99.90;;;;;;5058431;28;20036;-70
2022/12/13 03:21:27;;;;;;;36.03;18.58;;;-2.80;99.90;;;;;;5057924;28;20120;-70
2022/12/13 03:23:53;;;;;;;36.55;19.63;;;-2.80;99.90;;;;;;5057678;28;20020;-70
2022/12/13 03:26:24;;;;;;;34.45;19.33;;;-2.80;99.90;;;;;;5057566;28;20301;-70
2022/12/13 03:28:51;;;;;;;35.63;19.10;;;-2.80;99.90;;;;;;5057607;28;20032;-70
2022/12/13 03:31:16;;;;;;;40.70;20.23;;;-2.80;99.90;;;;;;5058240;28;20093;-70
2022/12/13 03:33:42;;;;;;;36.42;19.13;;;-2.80;99.90;;;;;;5041028;28;20128;-70
2022/12/13 03:36:10;;;;;;;35.13;19.70;;;-2.80;99.90;;;;;;5058699;28;20341;-69
2022/12/13 03:38:37;;;;;;;41.25;19.55;;;-2.80;99.90;;;;;;5057234;28;20040;-70
2022/12/13 03:41:08;;;;;;;36.40;18.90;;;-2.80;99.90;;;;;;5058495;28;20312;-70
2022/12/13 03:43:34;;;;;;;35.90;19.23;;;-2.90;99.90;;;;;;5057974;28;20304;-70
2022/12/13 03:46:00;;;;;;;37.25;18.60;;;-2.90;99.90;;;;;;5058041;28;20024;-70
2022/12/13 03:48:26;;;;;;;36.38;18.48;;;-2.90;99.90;;;;;;5057440;28;20401;-70
2022/12/13 03:50:53;;;;;;;37.35;19.52;;;-2.90;99.90;;;;;;5057053;28;20141;-70
2022/12/13 03:53:19;;;;;;;38.30;19.35;;;-2.90;99.90;;;;;;5057039;28;20111;-70
2022/12/13 03:55:46;;;;;;;36.08;18.90;;;-2.80;99.90;;;;;;5057694;28;20039;-69
2022/12/13 03:58:12;;;;;;;37.03;18.75;;;-2.80;99.90;;;;;;5056824;28;20041;-70
2022/12/13 04:00:38;;;;;;;35.40;17.95;;;-2.80;99.90;;;;;;5057603;28;20033;-70
2022/12/13 04:03:04;;;;;;;35.38;17.67;;;-2.80;99.90;;;;;;5057659;28;20099;-70
2022/12/13 04:05:30;;;;;;;40.60;18.73;;;-2.90;99.90;;;;;;5040104;28;20416;-70
2022/12/13 04:07:56;;;;;;;40.03;19.40;;;-2.80;99.90;;;;;;5057116;28;20086;-70
2022/12/13 04:10:23;;;;;;;37.33;19.15;;;-2.90;99.90;;;;;;5056747;28;20400;-70
2022/12/13 04:15:33;;;;;;;33.70;17.98;;;-2.80;99.90;;;;;;5056640;28;20032;-70
2022/12/13 04:17:58;;;;;;;30.65;17.73;;;-2.90;99.90;;;;;;5039932;28;20040;-69
2022/12/13 04:20:24;;;;;;;33.78;18.42;;;-2.90;99.90;;;;;;5057221;28;20123;-70
2022/12/13 04:22:50;;;;;;;36.78;18.13;;;-3.00;99.90;;;;;;5056661;28;20033;-70
2022/12/13 04:25:16;;;;;;;36.75;18.27;;;-3.00;99.90;;;;;;5056639;28;20036;-70
2022/12/13 04:27:42;;;;;;;34.22;18.33;;;-3.10;99.90;;;;;;5056437;28;20037;-70
2022/12/13 04:30:08;;;;;;;33.40;17.23;;;-3.00;99.90;;;;;;5057370;28;20351;-70
2022/12/13 04:32:34;;;;;;;37.13;18.83;;;-3.00;99.90;;;;;;5056302;28;20029;-70
2022/12/13 04:35:00;;;;;;;33.08;18.13;;;-3.10;99.90;;;;;;5039880;28;20043;-69
2022/12/13 04:37:25;;;;;;;35.08;18.30;;;-3.10;99.90;;;;;;5056280;28;20036;-69
2022/12/13 04:39:51;;;;;;;33.67;18.02;;;-3.10;99.90;;;;;;5057506;28;20380;-70
2022/12/13 04:42:17;;;;;;;38.15;16.92;;;-3.00;99.90;;;;;;5023294;28;20111;-70
2022/12/13 04:44:43;;;;;;;34.00;16.60;;;-3.00;99.90;;;;;;5056388;28;20044;-70
2022/12/13 04:47:09;;;;;;;32.00;17.58;;;-3.00;99.90;;;;;;5039617;28;20029;-70
2022/12/13 04:49:35;;;;;;;33.90;17.10;;;-2.90;99.90;;;;;;5039650;28;20037;-69
2022/12/13 04:52:01;;;;;;;32.53;17.25;;;-2.80;99.90;;;;;;5056798;28;20415;-69
2022/12/13 04:54:29;;;;;;;33.25;17.27;;;-2.70;99.90;;;;;;5056038;28;20098;-69
2022/12/13 04:56:54;;;;;;;37.75;17.70;;;-2.80;99.90;;;;;;5056106;28;20017;-69
2022/12/13 04:59:20;;;;;;;31.25;17.75;;;-2.80;99.90;;;;;;5039280;28;20102;-70
2022/12/13 05:01:46;;;;;;;37.03;17.75;;;-2.90;99.90;;;;;;5039293;28;20025;-70
2022/12/13 05:04:12;;;;;;;32.67;17.00;;;-3.00;99.90;;;;;;5039489;28;20025;-71
2022/12/13 05:06:38;;;;;;;31.75;16.60;;;-3.00;99.90;;;;;;5039816;28;20339;-71
2022/12/13 05:09:04;;;;;;;35.78;18.23;;;-3.10;99.90;;;;;;5056751;28;20355;-71
2022/12/13 05:11:30;;;;;;;33.25;18.15;;;-3.20;99.90;;;;;;5056077;28;20025;-71
2022/12/13 05:13:55;;;;;;;35.88;17.15;;;-3.20;99.90;;;;;;5056003;28;20086;-71
2022/12/13 05:16:21;;;;;;;36.20;17.33;;;-3.30;99.90;;;;;;5039325;28;20057;-71
2022/12/13 05:18:47;;;;;;;31.60;17.13;;;-3.30;99.90;;;;;;5055961;28;20029;-71
2022/12/13 05:21:13;;;;;;;35.72;17.88;;;-3.20;99.90;;;;;;5039117;28;20462;-71
2022/12/13 05:23:39;;;;;;;31.73;17.25;;;-3.20;99.90;;;;;;5056430;28;20029;-71
2022/12/13 05:26:05;;;;;;;29.88;15.95;;;-3.30;99.90;;;;;;5055940;28;20261;-71
2022/12/13 05:28:31;;;;;;;31.13;16.75;;;-3.20;99.90;;;;;;5056516;28;20119;-70
2022/12/13 05:31:04;;;;;;;35.28;16.58;;;-3.20;99.90;;;;;;5039282;28;20037;-71
2022/12/13 05:33:31;;;;;;;31.30;17.05;;;-3.30;99.90;;;;;;5055920;28;20033;-71
2022/12/13 05:35:56;;;;;;;27.83;15.82;;;-3.40;99.90;;;;;;5039204;28;20025;-71
2022/12/13 05:38:22;;;;;;;33.67;16.65;;;-3.40;99.90;;;;;;5038999;28;20052;-70
2022/12/13 05:40:48;;;;;;;33.42;16.23;;;-3.40;99.90;;;;;;5039117;28;20401;-70
2022/12/13 05:43:14;;;;;;;31.80;16.65;;;-3.40;99.90;;;;;;5055468;28;20397;-71
2022/12/13 05:45:40;;;;;;;32.90;15.80;;;-3.40;99.90;;;;;;5056692;28;20029;-70
2022/12/13 05:48:06;;;;;;;32.38;17.20;;;-3.40;99.90;;;;;;5056182;28;20083;-70
2022/12/13 05:50:32;;;;;;;34.75;16.92;;;-3.30;99.90;;;;;;5056437;28;20029;-71
2022/12/13 05:52:58;;;;;;;30.92;15.57;;;-3.30;99.90;;;;;;5056477;28;20048;-70
2022/12/13 05:55:23;;;;;;;34.80;16.48;;;-3.30;99.90;;;;;;5055996;28;20464;-70
2022/12/13 05:57:49;;;;;;;32.88;15.80;;;-3.40;99.90;;;;;;5056318;28;20064;-70
2022/12/13 06:00:15;;;;;;;30.65;16.67;;;-3.40;99.90;;;;;;5055470;28;20289;-71
2022/12/13 06:02:43;;;;;;;36.63;17.33;;;-3.40;99.90;;;;;;5056524;28;20029;-71
2022/12/13 06:05:09;;;;;;;28.48;16.20;;;-3.30;99.90;;;;;;5056850;28;20025;-71
2022/12/13 06:07:35;;;;;;;31.23;15.80;;;-3.30;99.90;;;;;;5056958;28;20416;-70
2022/12/13 06:10:02;;;;;;;30.92;15.10;;;-3.30;99.90;;;;;;5056597;28;20098;-71
2022/12/13 06:12:28;;;;;;;32.13;15.60;;;-3.30;99.90;;;;;;5056543;28;20107;-71
2022/12/13 06:14:54;;;;;;;31.25;15.90;;;-3.10;99.90;;;;;;5059761;28;20172;-71
2022/12/13 06:17:23;;;;;;;28.70;14.95;;;-3.20;99.90;;;;;;5042788;28;20333;-71
2022/12/13 06:19:50;;;;;;;26.20;15.30;;;-3.20;99.90;;;;;;5010253;28;20044;-71
2022/12/13 06:22:16;;;;;;;29.10;14.60;;;-3.20;99.90;;;;;;5058881;28;20032;-71
2022/12/13 06:24:43;;;;;;;30.10;14.90;;;-3.10;99.90;;;;;;5058951;28;20108;-71
2022/12/13 06:27:09;;;;;;;29.33;14.88;;;-3.20;99.90;;;;;;5059525;28;20059;-71
2022/12/13 06:29:35;;;;;;;32.17;16.02;;;-3.20;99.90;;;;;;5042023;28;20072;-70
2022/12/13 06:32:02;;;;;;;33.38;15.40;;;-3.30;99.90;;;;;;5059450;28;20036;-71
2022/12/13 06:34:32;;;;;;;29.00;14.63;;;-3.40;99.90;;;;;;5059604;28;20021;-70
2022/12/13 06:37:01;;;;;;;30.70;15.73;;;-3.40;99.90;;;;;;5059116;28;20109;-72
2022/12/13 06:39:28;;;;;;;27.98;14.90;;;-3.40;99.90;;;;;;5058143;28;20064;-71
2022/12/13 06:41:54;;;;;;;31.50;16.40;;;-3.40;99.90;;;;;;5058540;28;20312;-71
2022/12/13 06:44:20;;;;;;;35.85;16.88;;;-3.30;99.90;;;;;;5059339;28;20037;-71
2022/12/13 06:46:46;;;;;;;29.95;15.52;;;-3.30;99.90;;;;;;5059026;28;20017;-71
2022/12/13 06:49:12;;;;;;;33.70;15.20;;;-3.40;99.90;;;;;;5041634;28;20041;-71
2022/12/13 06:51:37;;;;;;;32.03;16.27;;;-3.40;99.90;;;;;;5058291;28;20108;-71
2022/12/13 06:54:03;;;;;;;33.03;16.60;;;-3.30;99.90;;;;;;5041965;28;20121;-71
2022/12/13 06:56:30;;;;;;;31.80;16.15;;;-3.20;99.90;;;;;;5058978;28;20029;-71
2022/12/13 06:58:57;;;;;;;34.28;16.23;;;-3.20;99.90;;;;;;5058812;28;20108;-71
2022/12/13 07:01:22;;;;;;;32.70;16.10;;;-3.20;99.90;;;;;;5058076;28;20029;-70
2022/12/13 07:03:48;;;;;;;31.08;15.82;;;-3.20;99.90;;;;;;5041469;28;20021;-70
2022/12/13 07:06:24;;;;;;;31.92;16.05;;;-3.20;99.90;;;;;;5058610;28;20319;-70
2022/12/13 07:08:52;;;;;;;29.92;16.02;;;-3.30;99.90;;;;;;5058757;28;20037;-71
2022/12/13 07:11:21;;;;;;;25.90;15.30;;;-3.40;99.90;;;;;;5058668;28;20029;-70
2022/12/13 07:13:47;;;;;;;32.67;16.17;;;-3.40;99.90;;;;;;5057885;28;20033;-71
2022/12/13 07:16:14;;;;;;;31.48;15.85;;;-3.30;99.90;;;;;;5058609;28;20309;-71
2022/12/13 07:18:40;;;;;;;28.48;15.80;;;-3.40;99.90;;;;;;5058389;28;20082;-71
2022/12/13 07:21:10;;;;;;;34.55;16.17;;;-3.40;99.90;;;;;;5057595;28;20048;-71
2022/12/13 07:23:38;;;;;;;31.92;16.02;;;-3.40;99.90;;;;;;5057018;28;20044;-70
2022/12/13 07:26:04;;;;;;;28.30;15.05;;;-3.40;99.90;;;;;;5057070;28;20039;-70
2022/12/13 07:28:37;;;;;;;28.48;15.27;;;-3.40;99.90;;;;;;5057574;28;20045;-71
2022/12/13 07:31:06;;;;;;;31.80;16.15;;;-3.40;99.90;;;;;;5058234;28;20422;-70
2022/12/13 07:33:32;;;;;;;29.08;15.65;;;-0.80;99.90;;;;;;5058325;28;20292;-70
2022/12/13 07:36:00;;;;;;;28.23;15.20;;;-1.50;99.90;;;;;;5057304;28;20033;-70
2022/12/13 07:38:26;;;;;;;28.15;14.30;;;-2.00;99.90;;;;;;5058017;28;20087;-70
2022/12/13 07:40:55;;;;;;;26.33;13.57;;;-2.40;99.90;;;;;;5057177;28;20029;-70
2022/12/13 07:43:21;;;;;;;26.02;14.88;;;-2.80;99.90;;;;;;5057265;28;20139;-70
2022/12/13 07:45:47;;;;;;;29.67;14.73;;;-3.00;99.90;;;;;;5057818;28;20435;-66
2022/12/13 07:48:13;;;;;;;31.67;15.57;;;-3.10;99.90;;;;;;5058094;28;20041;-70
2022/12/13 07:50:39;;;;;;;35.35;15.82;;;-2.80;99.90;;;;;;5057930;28;20392;-69
2022/12/13 07:53:07;;;;;;;27.27;14.65;;;-2.80;99.90;;;;;;5057162;28;20041;-69
2022/12/13 07:55:35;;;;;;;26.65;14.63;;;-2.90;99.90;;;;;;5056882;28;20033;-69
2022/12/13 07:58:13;;;;;;;26.13;14.50;;;-2.90;99.90;;;;;;5056984;28;20412;-69
2022/12/13 08:00:41;;;;;;;31.73;14.80;;;-2.90;99.90;;;;;;5057083;28;20178;-70
2022/12/13 08:03:07;;;;;;;28.05;14.75;;;-2.90;99.90;;;;;;5056878;28;20033;-70
2022/12/13 08:05:34;;;;;;;28.35;15.25;;;-2.80;99.90;;;;;;5057960;28;20044;-69
2022/12/13 08:08:00;;;;;;;28.83;14.13;;;-2.80;99.90;;;;;;5057019;28;20064;-70
2022/12/13 08:10:26;;;;;;;28.88;15.15;;;-2.90;99.90;;;;;;5057571;28;20033;-69
2022/12/13 08:12:52;;;;;;;28.08;14.52;;;-2.80;99.90;;;;;;5057519;28;20034;-70
2022/12/13 08:15:19;;;;;;;29.38;14.25;;;-2.80;99.90;;;;;;5057877;28;20415;-68
2022/12/13 08:17:44;;;;;;;25.30;14.57;;;-2.80;99.90;;;;;;5057534;28;20311;-69
2022/12/13 08:20:10;;;;;;;32.50;15.93;;;-2.70;99.90;;;;;;5039966;28;20123;-69
2022/12/13 08:22:36;;;;;;;27.70;14.65;;;-2.70;99.90;;;;;;5056558;28;20124;-69
2022/12/13 08:25:03;;;;;;;30.08;15.38;;;-2.70;99.90;;;;;;5057184;28;20120;-69
2022/12/13 08:27:29;;;;;;;29.60;15.13;;;-2.70;99.90;;;;;;5056442;28;20035;-69
2022/12/13 08:29:55;;;;;;;32.30;15.57;;;-2.60;99.90;;;;;;5040001;28;20095;-69
2022/12/13 08:32:21;;;;;;;27.35;14.73;;;-2.60;99.90;;;;;;5057111;28;20037;-69
2022/12/13 08:34:47;;;;;;;30.52;16.00;;;-2.50;99.90;;;;;;5056358;28;20048;-69
2022/12/13 08:37:12;;;;;;;31.33;15.70;;;-2.50;99.90;;;;;;5057129;28;20025;-69
2022/12/13 08:39:39;;;;;;;28.23;16.15;;;-2.40;99.90;;;;;;5056770;28;20040;-69
2022/12/13 08:42:14;;;;;;;29.90;16.55;;;-2.40;99.90;;;;;;5023088;28;20061;-69
2022/12/13 08:44:41;;;;;;;29.85;15.88;;;-2.50;99.90;;;;;;5056150;28;20037;-69
2022/12/13 08:47:07;;;;;;;33.65;16.15;;;-2.40;99.90;;;;;;5056846;28;20028;-70
2022/12/13 08:49:32;;;;;;;29.33;16.15;;;-2.40;99.90;;;;;;5056792;28;20411;-70
2022/12/13 08:51:58;;;;;;;32.58;16.58;;;-2.40;99.90;;;;;;5056768;28;20071;-70
2022/12/13 08:54:25;;;;;;;25.63;15.38;;;-2.30;99.90;;;;;;5055933;28;20111;-70
2022/12/13 08:56:50;;;;;;;31.77;16.40;;;-2.30;99.90;;;;;;5056659;28;20036;-69
2022/12/13 08:59:17;;;;;;;27.30;15.95;;;-2.10;99.90;;;;;;5023077;28;20423;-70
2022/12/13 09:01:43;;;;;;;33.80;16.77;;;-1.90;99.90;;;;;;5056803;28;20039;-69
2022/12/13 09:04:09;;;;;;;29.70;15.95;;;-1.90;99.90;;;;;;5056055;28;20025;-70
2022/12/13 09:06:34;;;;;;;29.98;16.10;;;-1.80;99.90;;;;;;5055832;28;20041;-69
2022/12/13 09:09:00;;;;;;;28.52;15.98;;;-1.70;99.90;;;;;;5056062;28;20071;-69
2022/12/13 09:11:26;;;;;;;28.33;16.20;;;-1.80;99.90;;;;;;5056890;28;20025;-68
2022/12/13 09:13:52;;;;;;;31.33;16.90;;;-1.70;99.90;;;;;;5055927;28;20051;-69
2022/12/13 09:16:22;;;;;;;29.70;16.05;;;-1.70;99.90;;;;;;5057241;28;20037;-69
2022/12/13 09:18:50;;;;;;;31.00;17.27;;;-1.70;99.90;;;;;;5056734;28;20036;-70
2022/12/13 09:21:16;;;;;;;31.35;17.27;;;-1.70;99.90;;;;;;5055819;28;20040;-70
2022/12/13 09:23:41;;;;;;;30.08;16.63;;;-1.80;99.90;;;;;;5056620;28;20296;-69
2022/12/13 09:26:09;;;;;;;33.47;17.27;;;-1.70;99.90;;;;;;5055941;28;20032;-69
2022/12/13 09:28:36;;;;;;;29.80;16.90;;;-1.50;99.90;;;;;;5039699;28;20028;-70
2022/12/13 09:31:10;;;;;;;30.95;17.40;;;-1.30;99.90;;;;;;5039277;28;20076;-70
2022/12/13 09:33:36;;;;;;;31.80;17.05;;;-1.30;99.90;;;;;;5056608;28;20526;-69
2022/12/13 09:36:07;;;;;;;27.38;16.88;;;-1.10;99.90;;;;;;5056570;28;20040;-69
2022/12/13 09:38:34;;;;;;;29.95;16.80;;;-1.00;99.90;;;;;;5056515;28;20045;-69
2022/12/13 09:41:22;;;;;;;29.25;16.88;;;-0.90;99.90;;;;;;5056411;28;20040;-69
2022/12/13 09:43:53;;;;;;;27.20;16.33;;;-0.80;99.90;;;;;;5056428;28;20040;-69
2022/12/13 09:46:26;;;;;;;31.73;17.35;;;-0.80;99.90;;;;;;5057001;28;20381;-69
2022/12/13 09:48:53;;;;;;;33.03;17.33;;;-0.90;99.90;;;;;;5058525;28;20047;-70
2022/12/13 09:51:20;;;;;;;30.42;17.45;;;-1.00;99.90;;;;;;5059454;28;20392;-70
2022/12/13 09:53:50;;;;;;;31.67;17.08;;;-0.90;99.90;;;;;;5042829;28;20052;-71
2022/12/13 09:56:18;;;;;;;29.67;16.20;;;-0.60;99.90;;;;;;5059527;28;20060;-69
2022/12/13 09:58:48;;;;;;;27.55;16.10;;;-0.40;99.90;;;;;;5060039;28;20112;-69
2022/12/13 10:01:14;;;;;;;27.38;16.08;;;-0.30;99.90;;;;;;5059126;28;20116;-69
2022/12/13 10:03:45;;;;;;;29.50;16.30;;;-0.20;99.90;;;;;;5059870;28;20032;-69
2022/12/13 10:06:27;;;;;;;26.92;15.05;;;0.00;99.90;;;;;;5042346;28;20052;-69
2022/12/13 10:08:58;;;;;;;28.85;15.65;;;0.10;99.90;;;;;;5059990;28;20017;-69
2022/12/13 10:11:26;;;;;;;26.48;15.15;;;0.70;99.90;;;;;;5059860;28;20364;-70
2022/12/13 10:14:11;;;;;;;28.67;15.38;;;1.30;99.90;;;;;;5058942;28;20044;-70
2022/12/13 10:16:42;;;;;;;28.63;15.15;;;1.80;99.90;;;;;;5060432;28;20025;-70
2022/12/13 10:19:27;;;;;;;27.80;15.50;;;2.40;99.90;;;;;;5059990;28;20039;-71
2022/12/13 10:21:53;;;;;;;26.30;15.70;;;3.00;99.90;;;;;;5059576;28;20033;-71
2022/12/13 10:24:31;;;;;;;27.90;14.85;;;3.40;99.90;;;;;;5058839;28;20505;-70
2022/12/13 10:27:13;;;;;;;23.48;14.80;;;3.90;99.90;;;;;;5059126;28;20040;-70
2022/12/13 10:30:04;;;;;;;23.80;15.18;;;4.30;99.90;;;;;;5059077;28;20393;-70
2022/12/13 10:32:34;;;;;;;23.80;14.73;;;4.50;99.90;;;;;;5059456;28;20029;-70
2022/12/13 10:35:10;;;;;;;21.98;14.45;;;4.90;99.90;;;;;;5058697;28;20423;-70
2022/12/13 10:37:36;;;;;;;22.25;14.93;;;5.30;99.90;;;;;;5059318;28;20045;-69
2022/12/13 10:40:03;;;;;;;26.05;15.65;;;6.00;99.90;;;;;;5041954;28;20023;-69
2022/12/13 10:42:28;;;;;;;24.52;15.23;;;6.00;99.90;;;;;;5058483;28;20025;-69
2022/12/13 10:45:15;;;;;;;24.13;15.80;;;6.50;99.90;;;;;;5059222;28;20102;-70
2022/12/13 10:47:44;;;;;;;22.55;15.40;;;6.60;99.90;;;;;;5058395;28;20025;-70
2022/12/13 10:50:28;;;;;;;24.25;15.57;;;6.60;99.90;;;;;;5059071;28;20379;-72
2022/12/13 10:52:56;;;;;;;22.98;14.43;;;5.80;99.90;;;;;;5058226;28;20411;-70
2022/12/13 10:55:28;;;;;;;23.52;14.65;;;5.50;99.90;;;;;;5059107;28;20301;-71
2022/12/13 10:58:06;;;;;;;17.13;10.90;;;5.40;99.90;;;;;;5058373;28;20064;-71
2022/12/13 11:00:34;;;;;;;23.02;14.15;;;5.10;99.90;;;;;;5058617;28;20757;-71
2022/12/13 11:03:00;;;;;;;24.23;14.60;;;5.70;99.90;;;;;;5041897;28;20021;-70
2022/12/13 11:05:29;;;;;;;20.15;14.27;;;5.80;99.90;;;;;;5058077;28;20052;-70
2022/12/13 11:08:11;;;;;;;21.30;14.18;;;5.90;99.90;;;;;;5057957;28;20049;-70
2022/12/13 11:10:37;;;;;;;23.73;15.10;;;5.70;99.90;;;;;;5058800;28;20037;-70
2022/12/13 11:13:05;;;;;;;24.55;14.57;;;5.80;99.90;;;;;;5057788;28;20037;-69
2022/12/13 11:15:35;;;;;;;22.23;14.70;;;5.30;99.90;;;;;;5041360;28;20024;-66
2022/12/13 11:18:05;;;;;;;26.98;15.80;;;5.00;99.90;;;;;;5058554;28;20053;-69
2022/12/13 11:20:35;;;;;;;26.27;16.13;;;4.90;99.90;;;;;;5058200;28;20366;-70
2022/12/13 11:23:18;;;;;;;27.20;16.45;;;4.50;99.90;;;;;;5057641;28;20091;-70
2022/12/13 11:25:44;;;;;;;30.80;17.02;;;4.30;99.90;;;;;;5057826;28;20361;-69
2022/12/13 11:28:28;;;;;;;27.05;16.85;;;3.90;99.90;;;;;;5057677;28;20032;-69
2022/12/13 11:31:02;;;;;;;27.00;15.85;;;3.80;99.90;;;;;;5058396;28;20278;-69
2022/12/13 11:33:35;;;;;;;29.10;16.90;;;3.70;99.90;;;;;;5057510;28;20032;-69
2022/12/13 11:36:13;;;;;;;28.55;15.95;;;3.60;99.90;;;;;;5058747;28;20087;-68
2022/12/13 11:38:57;;;;;;;27.40;16.98;;;3.50;99.90;;;;;;5057357;28;20029;-68
2022/12/13 11:41:59;;;;;;;27.83;16.88;;;3.60;99.90;;;;;;5057353;28;20462;-68
2022/12/13 11:44:32;;;;;;;29.10;15.38;;;3.40;99.90;;;;;;5055114;28;20040;-69
2022/12/13 11:46:59;;;;;;;28.10;16.35;;;3.60;99.90;;;;;;5057196;28;20063;-69
2022/12/13 11:49:31;;;;;;;31.20;17.67;;;3.70;99.90;;;;;;5057830;28;20297;-69
2022/12/13 11:52:04;;;;;;;28.63;16.57;;;3.70;99.90;;;;;;5040432;28;20028;-69
2022/12/13 11:54:56;;;;;;;28.60;16.27;;;3.80;99.90;;;;;;5057095;28;20373;-68
2022/12/13 11:57:38;;;;;;;25.85;15.68;;;3.60;99.90;;;;;;5052353;28;20039;-68
2022/12/13 12:00:27;;;;;;;27.92;16.17;;;3.50;99.90;;;;;;5057700;28;20052;-68
2022/12/13 12:03:22;;;;;;;25.83;14.80;;;3.50;99.90;;;;;;5057470;28;20060;-69
2022/12/13 12:06:00;;;;;;;25.13;14.40;;;3.60;99.90;;;;;;5047541;28;20124;-69
2022/12/13 12:08:36;;;;;;;23.92;14.55;;;3.60;99.90;;;;;;5056760;28;20124;-69
2022/12/13 12:11:28;;;;;;;23.85;14.55;;;3.50;99.90;;;;;;5057142;28;20404;-69
2022/12/13 12:14:18;;;;;;;27.10;15.15;;;3.20;99.90;;;;;;5057506;28;20063;-69
2022/12/13 12:16:54;;;;;;;24.38;14.80;;;3.10;99.90;;;;;;5050612;28;20036;-69
2022/12/13 12:19:33;;;;;;;25.98;15.23;;;3.20;99.90;;;;;;5039892;28;20335;-69
2022/12/13 12:22:20;;;;;;;24.50;13.98;;;3.20;99.90;;;;;;5039919;28;20419;-69
2022/12/13 12:25:04;;;;;;;26.88;15.20;;;3.20;99.90;;;;;;5057357;28;20048;-69
2022/12/13 12:27:30;;;;;;;25.17;15.30;;;3.40;99.90;;;;;;5056276;28;20043;-69
2022/12/13 12:30:09;;;;;;;29.98;16.92;;;3.30;99.90;;;;;;5056320;28;20096;-68
2022/12/13 12:32:59;;;;;;;25.65;15.70;;;3.40;99.90;;;;;;5056272;28;20044;-70
2022/12/13 12:36:09;;;;;;;26.67;15.63;;;3.20;99.90;;;;;;5057193;28;20377;-68
2022/12/13 12:39:22;;;;;;;24.05;14.35;;;3.30;99.90;;;;;;5035576;28;20038;-68
2022/12/13 12:42:09;;;;;;;25.48;15.07;;;3.20;99.90;;;;;;5028670;28;20057;-68
2022/12/13 12:44:56;;;;;;;26.17;14.63;;;3.10;99.90;;;;;;5055384;28;20052;-68
2022/12/13 12:47:55;;;;;;;25.35;14.55;;;3.10;99.90;;;;;;5056611;28;20352;-68
2022/12/13 12:50:27;;;;;;;26.15;15.50;;;3.10;99.90;;;;;;5056989;28;20033;-68